Time;durP1;ratioP1;P1;durP2;ratioP2;P2;SDS_P1;SDS_P2;PMS_P1;PMS_P2;Temp;Humidity;BMP_temperature;BMP_pressure;BME280_temperature;BME280_humidity;BME280_pressure;Samples;Min_cycle;Max_cycle;Signal;HPM_P1;HPM_P2
2022/09/08 00:01:14;;;;;;;15.35;14.10;;;;;;;;;;5023554;28;20235;-75
2022/09/08 00:03:42;;;;;;;16.77;15.52;;;;;;;;;;5006471;28;20219;-75
2022/09/08 00:06:13;;;;;;;16.30;15.13;;;;;;;;;;5008558;28;20791;-74
2022/09/08 00:08:43;;;;;;;17.05;15.70;;;;;;;;;;4972440;28;20891;-74
2022/09/08 00:11:09;;;;;;;17.05;15.85;;;;;;;;;;5017272;28;20334;-73
2022/09/08 00:13:41;;;;;;;17.10;15.40;;;;;;;;;;5017353;28;20236;-74
2022/09/08 00:16:07;;;;;;;15.88;14.77;;;;;;;;;;5009201;28;20223;-75
2022/09/08 00:18:37;;;;;;;17.42;16.13;;;;;;;;;;5008539;28;20215;-74
2022/09/08 00:21:05;;;;;;;17.30;15.98;;;;;;;;;;4995695;28;20732;-74
2022/09/08 00:23:33;;;;;;;17.15;15.90;;;;;;;;;;4982571;28;20223;-75
2022/09/08 00:26:00;;;;;;;15.98;14.77;;;;;;;;;;5030771;28;20234;-74
2022/09/08 00:28:28;;;;;;;18.60;17.25;;;;;;;;;;5017647;28;20224;-74
2022/09/08 00:30:59;;;;;;;18.08;16.67;;;;;;;;;;4993225;28;20230;-75
2022/09/08 00:33:24;;;;;;;16.27;15.07;;;;;;;;;;5013664;28;20426;-75
2022/09/08 00:35:51;;;;;;;15.05;13.80;;;;;;;;;;5018272;28;20267;-74
2022/09/08 00:38:24;;;;;;;14.20;13.20;;;;;;;;;;4993780;28;20227;-74
2022/09/08 00:40:52;;;;;;;14.43;13.43;;;;;;;;;;5018187;28;20684;-74
2022/09/08 00:43:34;;;;;;;16.10;14.88;;;;;;;;;;5018194;28;20231;-74
2022/09/08 00:46:22;;;;;;;14.55;13.45;;;;;;;;;;5017855;28;20310;-75
2022/09/08 00:48:53;;;;;;;15.15;13.85;;;;;;;;;;5012281;28;20315;-75
2022/09/08 00:51:18;;;;;;;15.88;14.70;;;;;;;;;;4991871;28;20224;-74
2022/09/08 00:53:44;;;;;;;14.85;13.75;;;;;;;;;;5015158;28;20254;-73
2022/09/08 00:56:10;;;;;;;16.13;14.82;;;;;;;;;;5014585;28;20262;-73
2022/09/08 00:58:36;;;;;;;15.20;13.77;;;;;;;;;;5004212;28;20232;-74
2022/09/08 01:01:02;;;;;;;14.68;13.45;;;;;;;;;;5014845;28;20591;-73
2022/09/08 01:03:27;;;;;;;15.40;14.30;;;;;;;;;;4983483;28;20311;-73
2022/09/08 01:06:02;;;;;;;18.13;16.83;;;;;;;;;;4987121;28;20239;-74
2022/09/08 01:14:50;;;;;;;16.25;14.95;;;;;;;;;;5012580;28;20216;-74
2022/09/08 01:17:20;;;;;;;14.90;13.32;;;;;;;;;;5000218;28;20239;-74
2022/09/08 01:19:46;;;;;;;15.57;14.48;;;;;;;;;;4987434;28;20219;-74
2022/09/08 01:22:26;;;;;;;15.48;14.27;;;;;;;;;;5012028;28;20296;-74
2022/09/08 01:25:22;;;;;;;15.23;13.85;;;;;;;;;;5012029;28;20228;-74
2022/09/08 01:27:56;;;;;;;13.60;12.50;;;;;;;;;;5011970;28;20223;-74
2022/09/08 01:30:21;;;;;;;13.27;12.27;;;;;;;;;;5008819;28;20248;-74
2022/09/08 01:32:47;;;;;;;11.30;9.88;;;;;;;;;;4969734;28;20208;-74
2022/09/08 01:35:33;;;;;;;12.60;11.55;;;;;;;;;;4994401;28;20212;-74
2022/09/08 01:38:19;;;;;;;25.20;13.07;;;;;;;;;;5024524;28;20225;-74
2022/09/08 01:40:47;;;;;;;34.55;13.27;;;;;;;;;;5025418;28;20220;-73
2022/09/08 01:45:59;;;;;;;24.13;13.27;;;;;;;;;;5009616;28;20238;-74
2022/09/08 01:48:27;;;;;;;26.52;12.98;;;;;;;;;;5002238;28;20216;-74
2022/09/08 01:51:00;;;;;;;24.30;13.60;;;;;;;;;;4999374;28;20219;-75
2022/09/08 01:53:27;;;;;;;25.02;14.15;;;;;;;;;;5008795;28;20230;-74
2022/09/08 01:56:11;;;;;;;14.32;12.82;;;;;;;;;;5015129;28;20216;-74
2022/09/08 01:58:41;;;;;;;21.58;12.15;;;;;;;;;;5010084;28;20639;-74
2022/09/08 02:01:10;;;;;;;27.33;13.20;;;;;;;;;;5038758;28;20231;-74
2022/09/08 02:03:35;;;;;;;14.38;12.75;;;;;;;;;;5008586;28;20619;-74
2022/09/08 02:06:01;;;;;;;12.82;11.98;;;;;;;;;;5011443;28;20285;-74
2022/09/08 02:08:27;;;;;;;13.75;12.85;;;;;;;;;;5012020;28;20231;-75
2022/09/08 02:10:56;;;;;;;14.00;13.10;;;;;;;;;;4976931;28;20232;-74
2022/09/08 02:13:26;;;;;;;14.68;13.68;;;;;;;;;;4962971;28;20655;-74
2022/09/08 02:15:57;;;;;;;15.05;13.95;;;;;;;;;;4961623;28;20229;-75
2022/09/08 02:18:23;;;;;;;13.48;12.57;;;;;;;;;;4948407;28;20227;-74
2022/09/08 02:20:49;;;;;;;13.55;12.65;;;;;;;;;;4996025;28;20216;-74
2022/09/08 02:23:14;;;;;;;16.33;15.13;;;;;;;;;;4976979;28;20229;-74
2022/09/08 02:25:42;;;;;;;16.77;15.55;;;;;;;;;;4986253;28;20233;-74
2022/09/08 02:28:07;;;;;;;16.65;15.45;;;;;;;;;;4975368;28;20295;-74
2022/09/08 02:30:33;;;;;;;19.23;17.83;;;;;;;;;;4979264;28;20230;-75
2022/09/08 02:33:01;;;;;;;17.00;15.70;;;;;;;;;;5002280;28;20315;-74
2022/09/08 02:35:26;;;;;;;18.13;16.55;;;;;;;;;;5025333;28;20281;-74
2022/09/08 02:37:54;;;;;;;19.23;17.73;;;;;;;;;;5024112;28;20223;-74
2022/09/08 02:40:20;;;;;;;17.00;15.70;;;;;;;;;;5037270;28;20234;-74
2022/09/08 02:42:48;;;;;;;14.82;13.73;;;;;;;;;;5005047;28;20232;-75
2022/09/08 02:45:13;;;;;;;18.25;16.90;;;;;;;;;;5003397;28;20721;-75
2022/09/08 02:47:41;;;;;;;16.63;15.52;;;;;;;;;;4974777;28;20224;-74
2022/09/08 02:50:09;;;;;;;17.73;16.17;;;;;;;;;;5018502;28;20227;-74
2022/09/08 02:52:35;;;;;;;18.63;17.00;;;;;;;;;;5013433;28;20600;-74
2022/09/08 02:55:00;;;;;;;16.95;15.73;;;;;;;;;;5035524;28;20398;-74
2022/09/08 02:57:31;;;;;;;17.30;16.00;;;;;;;;;;5017078;28;20227;-74
2022/09/08 02:59:56;;;;;;;18.08;16.50;;;;;;;;;;5022151;28;20232;-74
2022/09/08 03:02:22;;;;;;;16.25;15.15;;;;;;;;;;4998581;28;20729;-74
2022/09/08 03:04:47;;;;;;;17.77;16.40;;;;;;;;;;5020666;28;20220;-74
2022/09/08 03:07:17;;;;;;;15.80;14.60;;;;;;;;;;4984113;28;20227;-74
2022/09/08 03:09:46;;;;;;;19.20;17.80;;;;;;;;;;5000199;28;20798;-74
2022/09/08 03:12:16;;;;;;;17.63;16.17;;;;;;;;;;5001451;28;20306;-75
2022/09/08 03:14:42;;;;;;;18.33;17.00;;;;;;;;;;5018348;28;20228;-73
2022/09/08 03:17:09;;;;;;;18.08;16.67;;;;;;;;;;4986239;28;20293;-72
2022/09/08 03:19:37;;;;;;;19.15;17.67;;;;;;;;;;5010524;28;20216;-73
2022/09/08 03:22:03;;;;;;;17.73;16.13;;;;;;;;;;5009744;28;20235;-74
2022/09/08 03:24:30;;;;;;;19.27;17.77;;;;;;;;;;5002031;28;20219;-74
2022/09/08 03:26:55;;;;;;;15.93;14.68;;;;;;;;;;5027244;28;20235;-73
2022/09/08 03:29:21;;;;;;;17.60;16.20;;;;;;;;;;5019274;28;20371;-74
2022/09/08 03:31:46;;;;;;;17.92;16.63;;;;;;;;;;5001503;28;20764;-74
2022/09/08 03:34:12;;;;;;;17.73;16.42;;;;;;;;;;4990251;28;20223;-73
2022/09/08 03:36:37;;;;;;;17.80;15.95;;;;;;;;;;5019425;28;20220;-73
2022/09/08 03:39:08;;;;;;;17.55;16.15;;;;;;;;;;4994460;28;20223;-74
2022/09/08 03:41:34;;;;;;;19.05;17.48;;;;;;;;;;5024545;28;20292;-74
2022/09/08 03:44:01;;;;;;;18.65;17.27;;;;;;;;;;4993643;28;20223;-73
2022/09/08 03:46:30;;;;;;;20.25;18.52;;;;;;;;;;5039589;28;20246;-74
2022/09/08 03:48:56;;;;;;;19.05;17.55;;;;;;;;;;4999657;28;20220;-73
2022/09/08 03:51:27;;;;;;;18.48;17.08;;;;;;;;;;5007750;28;20709;-73
2022/09/08 03:54:46;;;;;;;19.02;17.42;;;;;;;;;;5017055;28;20228;-73
2022/09/08 03:56:38;;;;;;;20.27;18.77;;;;;;;;;;5006881;28;20224;-74
2022/09/08 03:59:04;;;;;;;20.98;19.38;;;;;;;;;;5022032;28;20227;-75
2022/09/08 04:01:32;;;;;;;21.38;19.58;;;;;;;;;;5022258;28;20303;-74
2022/09/08 04:03:58;;;;;;;22.27;20.40;;;;;;;;;;5003678;28;20238;-74
2022/09/08 04:06:27;;;;;;;23.70;21.80;;;;;;;;;;5004237;28;20236;-74
2022/09/08 04:08:55;;;;;;;23.10;21.10;;;;;;;;;;5005035;28;20227;-74
2022/09/08 04:11:22;;;;;;;21.88;20.08;;;;;;;;;;5006579;28;20607;-74
2022/09/08 04:13:50;;;;;;;22.83;20.90;;;;;;;;;;4984552;28;20220;-74
2022/09/08 04:16:16;;;;;;;23.42;21.52;;;;;;;;;;4995378;28;20211;-74
2022/09/08 04:18:44;;;;;;;22.25;20.33;;;;;;;;;;5002652;28;20250;-74
2022/09/08 04:21:10;;;;;;;21.20;19.63;;;;;;;;;;4992111;28;20757;-72
2022/09/08 04:23:36;;;;;;;20.83;19.15;;;;;;;;;;4968561;28;20720;-74
2022/09/08 04:26:04;;;;;;;19.95;18.38;;;;;;;;;;5016829;28;20235;-74
2022/09/08 04:28:30;;;;;;;18.20;16.77;;;;;;;;;;5012020;28;20248;-73
2022/09/08 04:30:58;;;;;;;19.85;18.15;;;;;;;;;;5019856;28;20235;-75
2022/09/08 04:33:24;;;;;;;17.58;16.27;;;;;;;;;;5017590;28;20215;-74
2022/09/08 04:35:49;;;;;;;18.83;17.20;;;;;;;;;;4987849;28;20593;-73
2022/09/08 04:38:15;;;;;;;18.23;16.63;;;;;;;;;;5008972;28;20223;-73
2022/09/08 04:40:43;;;;;;;18.52;17.02;;;;;;;;;;5034491;28;20226;-74
2022/09/08 04:43:08;;;;;;;21.05;19.25;;;;;;;;;;4983103;28;20614;-73
2022/09/08 04:45:34;;;;;;;19.27;17.73;;;;;;;;;;4985335;28;20227;-72
2022/09/08 04:48:04;;;;;;;20.27;18.60;;;;;;;;;;5017110;28;20228;-73
2022/09/08 04:50:30;;;;;;;17.83;16.48;;;;;;;;;;5035763;28;20234;-73
2022/09/08 04:52:55;;;;;;;20.35;18.70;;;;;;;;;;4989212;28;20227;-74
2022/09/08 04:55:26;;;;;;;21.05;19.42;;;;;;;;;;5010176;28;20212;-74
2022/09/08 04:57:51;;;;;;;23.45;21.55;;;;;;;;;;5010115;28;20251;-73
2022/09/08 05:00:19;;;;;;;22.75;20.95;;;;;;;;;;4999828;28;20228;-74
2022/09/08 05:02:48;;;;;;;23.42;21.52;;;;;;;;;;5021506;28;20243;-73
2022/09/08 05:05:16;;;;;;;24.50;22.50;;;;;;;;;;5028377;28;20216;-75
2022/09/08 05:07:42;;;;;;;23.45;21.60;;;;;;;;;;5011846;28;20233;-74
2022/09/08 05:10:08;;;;;;;23.58;21.77;;;;;;;;;;5019683;28;20563;-74
2022/09/08 05:12:36;;;;;;;22.65;20.92;;;;;;;;;;4996035;28;20227;-74
2022/09/08 05:15:04;;;;;;;21.40;19.52;;;;;;;;;;5014076;28;20725;-74
2022/09/08 05:17:30;;;;;;;21.85;20.00;;;;;;;;;;5019948;28;20266;-74
2022/09/08 05:19:55;;;;;;;20.23;18.60;;;;;;;;;;5009134;28;20251;-75
2022/09/08 05:22:23;;;;;;;20.33;18.40;;;;;;;;;;4995104;28;20716;-74
2022/09/08 05:24:52;;;;;;;18.95;17.45;;;;;;;;;;5022550;28;20224;-75
2022/09/08 05:27:48;;;;;;;20.23;18.35;;;;;;;;;;5041175;28;20219;-75
2022/09/08 05:30:16;;;;;;;19.75;18.05;;;;;;;;;;5004913;28;20230;-73
2022/09/08 05:32:51;;;;;;;19.52;17.90;;;;;;;;;;5005688;28;20319;-73
2022/09/08 05:35:17;;;;;;;19.80;17.92;;;;;;;;;;5028142;28;20227;-73
2022/09/08 05:37:45;;;;;;;19.27;17.67;;;;;;;;;;5012932;28;20227;-74
2022/09/08 05:40:15;;;;;;;19.77;18.17;;;;;;;;;;5040764;28;20236;-73
2022/09/08 05:42:48;;;;;;;18.38;16.80;;;;;;;;;;5005587;28;20277;-73
2022/09/08 05:45:13;;;;;;;19.25;17.60;;;;;;;;;;5023387;28;20226;-74
2022/09/08 05:47:39;;;;;;;18.10;16.63;;;;;;;;;;4994499;28;20219;-74
2022/09/08 05:50:14;;;;;;;18.35;16.92;;;;;;;;;;4999732;28;20235;-74
2022/09/08 05:52:51;;;;;;;18.33;16.90;;;;;;;;;;4996404;28;20211;-74
2022/09/08 05:55:19;;;;;;;17.67;16.25;;;;;;;;;;4973313;28;20203;-73
2022/09/08 05:57:47;;;;;;;18.33;16.83;;;;;;;;;;5038765;28;20219;-73
2022/09/08 06:00:15;;;;;;;17.67;15.90;;;;;;;;;;4991475;28;20236;-75
2022/09/08 06:02:41;;;;;;;18.95;17.35;;;;;;;;;;5039667;28;20604;-75
2022/09/08 06:05:13;;;;;;;17.05;15.38;;;;;;;;;;5018086;28;20223;-74
2022/09/08 06:07:39;;;;;;;15.40;14.18;;;;;;;;;;5019448;28;20349;-75
2022/09/08 06:10:08;;;;;;;16.00;14.55;;;;;;;;;;5009812;28;20326;-74
2022/09/08 06:12:33;;;;;;;16.33;14.88;;;;;;;;;;5036284;28;20215;-74
2022/09/08 06:15:06;;;;;;;16.13;14.85;;;;;;;;;;5021184;28;20272;-74
2022/09/08 06:17:32;;;;;;;16.48;14.82;;;;;;;;;;5004431;28;20224;-74
2022/09/08 06:19:58;;;;;;;15.23;13.93;;;;;;;;;;5001798;28;20223;-75
2022/09/08 06:22:24;;;;;;;15.07;13.65;;;;;;;;;;4964939;28;20273;-75
2022/09/08 06:24:54;;;;;;;14.65;13.45;;;;;;;;;;4985855;28;20534;-73
2022/09/08 06:27:32;;;;;;;14.25;13.00;;;;;;;;;;4964451;28;20757;-74
2022/09/08 06:30:18;;;;;;;14.38;13.25;;;;;;;;;;5025125;28;20281;-75
2022/09/08 06:33:07;;;;;;;13.40;12.40;;;;;;;;;;4983822;28;20298;-74
2022/09/08 06:35:33;;;;;;;13.82;12.60;;;;;;;;;;4994739;28;20269;-73
2022/09/08 06:38:01;;;;;;;13.40;12.00;;;;;;;;;;5026051;28;20236;-73
2022/09/08 06:40:28;;;;;;;12.70;11.80;;;;;;;;;;4974659;28;20220;-74
2022/09/08 06:43:15;;;;;;;13.02;11.93;;;;;;;;;;4991266;28;20675;-73
2022/09/08 06:45:55;;;;;;;14.02;12.50;;;;;;;;;;5000901;28;20678;-73
2022/09/08 06:48:34;;;;;;;12.20;11.20;;;;;;;;;;5011921;28;20226;-74
2022/09/08 06:51:35;;;;;;;13.07;11.45;;;;;;;;;;4994438;28;20327;-75
2022/09/08 06:54:23;;;;;;;12.23;11.23;;;;;;;;;;4994284;28;20755;-73
2022/09/08 06:57:25;;;;;;;13.38;12.15;;;;;;;;;;5007530;28;20788;-75
2022/09/08 07:00:00;;;;;;;11.93;11.02;;;;;;;;;;4996714;28;20227;-74
2022/09/08 07:02:26;;;;;;;12.43;11.32;;;;;;;;;;5019402;28;20238;-74
2022/09/08 07:05:06;;;;;;;11.75;10.85;;;;;;;;;;5021505;28;20712;-74
2022/09/08 07:07:51;;;;;;;12.43;11.30;;;;;;;;;;5038020;28;20243;-75
2022/09/08 07:10:16;;;;;;;12.40;11.30;;;;;;;;;;5013608;28;20224;-74
2022/09/08 07:12:51;;;;;;;11.23;10.32;;;;;;;;;;5021596;28;20238;-74
2022/09/08 07:15:32;;;;;;;12.25;11.25;;;;;;;;;;5021617;28;20234;-74
2022/09/08 07:18:18;;;;;;;12.35;11.30;;;;;;;;;;5008325;28;20224;-74
2022/09/08 07:20:44;;;;;;;11.25;10.25;;;;;;;;;;5003276;28;20256;-74
2022/09/08 07:23:20;;;;;;;12.07;10.98;;;;;;;;;;5009640;28;20964;-75
2022/09/08 07:25:57;;;;;;;11.13;10.30;;;;;;;;;;4990414;28;20228;-73
2022/09/08 07:28:24;;;;;;;10.88;9.82;;;;;;;;;;4978203;28;20242;-73
2022/09/08 07:30:56;;;;;;;11.25;10.25;;;;;;;;;;4987261;28;20616;-75
2022/09/08 07:33:31;;;;;;;11.50;9.85;;;;;;;;;;5004883;28;20314;-74
2022/09/08 07:36:07;;;;;;;10.55;9.63;;;;;;;;;;5004347;28;20235;-73
2022/09/08 07:38:36;;;;;;;10.18;9.15;;;;;;;;;;5020709;28;20234;-73
2022/09/08 07:41:08;;;;;;;9.77;8.98;;;;;;;;;;4999565;28;20232;-73
2022/09/08 07:43:34;;;;;;;10.25;9.15;;;;;;;;;;5011283;28;20229;-74
2022/09/08 07:46:27;;;;;;;9.20;8.32;;;;;;;;;;5008994;28;20232;-75
2022/09/08 07:49:16;;;;;;;9.23;8.32;;;;;;;;;;5033196;28;20229;-75
2022/09/08 07:51:54;;;;;;;10.48;8.68;;;;;;;;;;5018675;28;20239;-74
2022/09/08 07:54:33;;;;;;;9.43;8.60;;;;;;;;;;4987782;28;20318;-76
2022/09/08 07:57:27;;;;;;;9.63;8.73;;;;;;;;;;5005869;28;20364;-74
2022/09/08 07:59:55;;;;;;;9.43;8.63;;;;;;;;;;4997579;28;20230;-73
2022/09/08 08:02:48;;;;;;;9.65;8.50;;;;;;;;;;5034958;28;20223;-72
2022/09/08 08:05:28;;;;;;;9.10;8.30;;;;;;;;;;5027112;28;20780;-73
2022/09/08 08:08:16;;;;;;;8.27;7.35;;;;;;;;;;4986364;28;20255;-73
2022/09/08 08:11:00;;;;;;;11.32;8.13;;;;;;;;;;5010928;28;20309;-74
2022/09/08 08:13:45;;;;;;;8.40;7.57;;;;;;;;;;5017409;28;20295;-73
2022/09/08 08:16:15;;;;;;;8.63;7.93;;;;;;;;;;5020216;28;21019;-73
2022/09/08 08:19:02;;;;;;;8.95;7.97;;;;;;;;;;5005620;28;20243;-74
2022/09/08 08:21:51;;;;;;;8.50;7.80;;;;;;;;;;5003216;28;20227;-73
2022/09/08 08:24:38;;;;;;;8.27;7.57;;;;;;;;;;5011910;28;20235;-76
2022/09/08 08:27:24;;;;;;;8.35;7.43;;;;;;;;;;5027005;28;20228;-73
2022/09/08 08:30:11;;;;;;;7.85;7.03;;;;;;;;;;5017889;28;20227;-73
2022/09/08 08:32:42;;;;;;;7.90;7.10;;;;;;;;;;5027417;28;20219;-73
2022/09/08 08:35:13;;;;;;;8.40;7.60;;;;;;;;;;5017289;28;20295;-73
2022/09/08 08:37:39;;;;;;;8.10;7.32;;;;;;;;;;4990261;28;20227;-73
2022/09/08 08:40:25;;;;;;;7.97;7.20;;;;;;;;;;4987348;28;20216;-73
2022/09/08 08:43:08;;;;;;;7.53;6.82;;;;;;;;;;5000270;28;20311;-73
2022/09/08 08:45:37;;;;;;;7.50;6.80;;;;;;;;;;4993907;28;20223;-73
2022/09/08 08:48:26;;;;;;;6.40;5.90;;;;;;;;;;5017725;28;20235;-74
2022/09/08 08:50:52;;;;;;;8.00;6.55;;;;;;;;;;5000803;28;20223;-75
2022/09/08 08:53:42;;;;;;;6.97;6.43;;;;;;;;;;5015216;28;20234;-74
2022/09/08 08:56:29;;;;;;;9.40;6.75;;;;;;;;;;5035331;28;20617;-74
2022/09/08 08:58:55;;;;;;;9.48;7.13;;;;;;;;;;5017310;28;20235;-74
2022/09/08 09:01:51;;;;;;;9.75;7.55;;;;;;;;;;4997138;28;20228;-73
2022/09/08 09:04:23;;;;;;;7.57;6.88;;;;;;;;;;5023609;28;20224;-74
2022/09/08 09:06:51;;;;;;;7.75;7.10;;;;;;;;;;5019451;28;20285;-74
2022/09/08 09:09:38;;;;;;;10.18;7.25;;;;;;;;;;5019145;28;20235;-74
2022/09/08 09:12:29;;;;;;;7.25;6.63;;;;;;;;;;5033751;28;20224;-73
2022/09/08 09:15:30;;;;;;;7.88;7.07;;;;;;;;;;4999946;28;20272;-74
2022/09/08 09:18:07;;;;;;;7.53;6.82;;;;;;;;;;5033260;28;20302;-74
2022/09/08 09:21:06;;;;;;;7.80;7.07;;;;;;;;;;5019992;28;20224;-74
2022/09/08 09:23:44;;;;;;;9.07;7.55;;;;;;;;;;5026861;28;20562;-74
2022/09/08 09:26:14;;;;;;;7.85;7.05;;;;;;;;;;5026494;28;20310;-74
2022/09/08 09:29:08;;;;;;;7.57;6.97;;;;;;;;;;5019954;28;20248;-75
2022/09/08 09:31:45;;;;;;;8.77;7.63;;;;;;;;;;5018262;28;20656;-74
2022/09/08 09:34:18;;;;;;;11.18;8.00;;;;;;;;;;5033885;28;20604;-74
2022/09/08 09:37:02;;;;;;;8.32;7.63;;;;;;;;;;5010696;28;20255;-74
2022/09/08 09:39:47;;;;;;;8.15;7.45;;;;;;;;;;5022021;28;20265;-74
2022/09/08 09:42:20;;;;;;;8.20;7.18;;;;;;;;;;5036563;28;20602;-75
2022/09/08 09:44:58;;;;;;;8.48;7.75;;;;;;;;;;5005629;28;20232;-74
2022/09/08 09:47:47;;;;;;;12.73;7.72;;;;;;;;;;5042209;28;20314;-74
2022/09/08 09:50:43;;;;;;;10.13;7.95;;;;;;;;;;5010965;28;20255;-74
2022/09/08 09:53:21;;;;;;;8.65;7.85;;;;;;;;;;5010683;28;20228;-74
2022/09/08 09:56:12;;;;;;;9.45;8.50;;;;;;;;;;5020401;28;20693;-74
2022/09/08 09:59:03;;;;;;;8.25;7.50;;;;;;;;;;5021823;28;20231;-75
2022/09/08 10:01:56;;;;;;;8.00;7.30;;;;;;;;;;4995766;28;20226;-74
2022/09/08 10:05:03;;;;;;;8.73;7.95;;;;;;;;;;5027144;28;20219;-74
2022/09/08 10:08:14;;;;;;;8.43;7.55;;;;;;;;;;5038441;28;20234;-75
2022/09/08 10:11:16;;;;;;;8.57;7.80;;;;;;;;;;5008889;28;20223;-74
2022/09/08 10:13:48;;;;;;;12.00;7.88;;;;;;;;;;5017506;28;20219;-74
2022/09/08 10:16:26;;;;;;;8.15;7.45;;;;;;;;;;5006490;28;20273;-75
2022/09/08 10:19:09;;;;;;;8.73;7.80;;;;;;;;;;5016671;28;20220;-75
2022/09/08 10:21:46;;;;;;;9.65;8.23;;;;;;;;;;5022293;28;20705;-75
2022/09/08 10:24:15;;;;;;;8.85;7.95;;;;;;;;;;5017992;28;20223;-73
2022/09/08 10:26:49;;;;;;;9.73;8.82;;;;;;;;;;5022648;28;20845;-75
2022/09/08 10:29:32;;;;;;;9.18;8.38;;;;;;;;;;4983256;28;20223;-74
2022/09/08 10:32:20;;;;;;;9.32;8.35;;;;;;;;;;5002600;28;20232;-73
2022/09/08 10:35:06;;;;;;;9.13;8.43;;;;;;;;;;4981094;28;20227;-73
2022/09/08 10:37:36;;;;;;;9.23;8.27;;;;;;;;;;4997798;28;20313;-74
2022/09/08 10:40:10;;;;;;;10.18;9.02;;;;;;;;;;5034702;28;20216;-73
2022/09/08 10:42:50;;;;;;;9.48;8.68;;;;;;;;;;5018840;28;20780;-74
2022/09/08 10:45:18;;;;;;;11.43;9.25;;;;;;;;;;5020946;28;20306;-73
2022/09/08 10:48:05;;;;;;;9.45;8.65;;;;;;;;;;5020477;28;20223;-73
2022/09/08 10:50:32;;;;;;;10.63;9.57;;;;;;;;;;5012497;28;20244;-74
2022/09/08 10:53:20;;;;;;;10.20;9.18;;;;;;;;;;4994080;28;20288;-74
2022/09/08 10:55:55;;;;;;;10.05;9.23;;;;;;;;;;5014875;28;20219;-73
2022/09/08 10:58:51;;;;;;;9.77;8.98;;;;;;;;;;5005052;28;20222;-75
2022/09/08 11:01:41;;;;;;;11.20;10.07;;;;;;;;;;5040999;28;20256;-73
2022/09/08 11:04:08;;;;;;;11.18;10.05;;;;;;;;;;5036484;28;20219;-74
2022/09/08 11:06:45;;;;;;;11.82;10.80;;;;;;;;;;5020060;28;20240;-74
2022/09/08 11:09:11;;;;;;;11.55;10.57;;;;;;;;;;5022082;28;20239;-73
2022/09/08 11:12:14;;;;;;;11.90;10.80;;;;;;;;;;5019634;28;20251;-73
2022/09/08 11:14:46;;;;;;;12.30;10.93;;;;;;;;;;4944364;28;20771;-73
2022/09/08 11:17:14;;;;;;;11.70;10.68;;;;;;;;;;5020971;28;20241;-75
2022/09/08 11:19:46;;;;;;;11.70;10.68;;;;;;;;;;5024989;28;20227;-74
2022/09/08 11:22:40;;;;;;;11.70;10.70;;;;;;;;;;5020618;28;20220;-74
2022/09/08 11:25:23;;;;;;;12.55;11.43;;;;;;;;;;5036607;28;20628;-74
2022/09/08 11:27:52;;;;;;;12.68;11.57;;;;;;;;;;5020968;28;20223;-74
2022/09/08 11:30:19;;;;;;;12.55;11.45;;;;;;;;;;5010123;28;20670;-75
2022/09/08 11:33:09;;;;;;;13.00;11.98;;;;;;;;;;4987301;28;20753;-75
2022/09/08 11:35:52;;;;;;;14.35;12.77;;;;;;;;;;5035780;28;20228;-74
2022/09/08 11:39:02;;;;;;;14.30;13.20;;;;;;;;;;5005169;28;20745;-74
2022/09/08 11:42:01;;;;;;;14.50;13.30;;;;;;;;;;5008748;28;20228;-74
2022/09/08 11:44:30;;;;;;;13.00;11.98;;;;;;;;;;5010395;28;20230;-74
2022/09/08 11:47:36;;;;;;;15.35;13.95;;;;;;;;;;5022219;28;20323;-74
2022/09/08 11:50:24;;;;;;;14.73;13.63;;;;;;;;;;5011722;28;20294;-75
2022/09/08 11:53:14;;;;;;;15.70;14.25;;;;;;;;;;5001894;28;20664;-74
2022/09/08 11:55:55;;;;;;;15.75;14.45;;;;;;;;;;5017836;28;20231;-74
2022/09/08 11:58:23;;;;;;;15.98;14.63;;;;;;;;;;5035526;28;20224;-75
2022/09/08 12:01:10;;;;;;;16.48;15.00;;;;;;;;;;5020709;28;20706;-75
2022/09/08 12:04:20;;;;;;;19.55;17.65;;;;;;;;;;5018929;28;20624;-75
2022/09/08 12:07:10;;;;;;;17.00;15.60;;;;;;;;;;4943918;28;20238;-73
2022/09/08 12:09:41;;;;;;;17.67;16.17;;;;;;;;;;5003040;28;20669;-73
2022/09/08 12:12:39;;;;;;;18.60;16.77;;;;;;;;;;5014543;28;20239;-73
2022/09/08 12:15:13;;;;;;;19.63;17.88;;;;;;;;;;5005764;28;20705;-73
2022/09/08 12:17:55;;;;;;;21.20;19.38;;;;;;;;;;5034348;28;20235;-72
2022/09/08 12:20:28;;;;;;;19.65;17.95;;;;;;;;;;5008469;28;20220;-72
2022/09/08 12:23:17;;;;;;;19.35;17.67;;;;;;;;;;4977267;28;20246;-73
2022/09/08 12:25:54;;;;;;;19.73;18.13;;;;;;;;;;5014177;28;20240;-73
2022/09/08 12:28:29;;;;;;;19.95;17.95;;;;;;;;;;5020035;28;20280;-71
2022/09/08 12:31:16;;;;;;;20.05;18.45;;;;;;;;;;5033196;28;20230;-73
2022/09/08 12:33:47;;;;;;;17.70;16.38;;;;;;;;;;5004330;28;20227;-73
2022/09/08 12:36:19;;;;;;;18.30;16.70;;;;;;;;;;5031816;28;21055;-73
2022/09/08 12:38:48;;;;;;;18.42;16.83;;;;;;;;;;5026019;28;20238;-73
2022/09/08 12:41:31;;;;;;;16.02;14.80;;;;;;;;;;5007968;28;20723;-73
2022/09/08 12:44:17;;;;;;;15.35;14.25;;;;;;;;;;5008310;28;20277;-73
2022/09/08 12:47:22;;;;;;;16.13;14.75;;;;;;;;;;4996698;28;20294;-73
2022/09/08 12:50:12;;;;;;;14.65;13.63;;;;;;;;;;5003572;28;20667;-73
2022/09/08 12:53:03;;;;;;;13.75;12.73;;;;;;;;;;5018086;28;20247;-72
2022/09/08 12:55:40;;;;;;;13.32;12.32;;;;;;;;;;5002099;28;20223;-73
2022/09/08 12:58:05;;;;;;;13.25;12.32;;;;;;;;;;4969556;28;20764;-74
2022/09/08 13:00:42;;;;;;;15.02;13.65;;;;;;;;;;4985039;28;20235;-73
2022/09/08 13:03:10;;;;;;;14.35;13.25;;;;;;;;;;4995650;28;20811;-75
2022/09/08 13:05:51;;;;;;;14.15;12.93;;;;;;;;;;5020006;28;20224;-73
2022/09/08 13:08:31;;;;;;;13.57;12.48;;;;;;;;;;5021128;28;20709;-73
2022/09/08 13:11:23;;;;;;;13.02;11.95;;;;;;;;;;4993976;28;20232;-73
2022/09/08 13:13:48;;;;;;;13.00;12.05;;;;;;;;;;5000652;28;20219;-73
2022/09/08 13:16:42;;;;;;;13.80;12.70;;;;;;;;;;4997892;28;20227;-73
2022/09/08 13:19:11;;;;;;;13.40;12.40;;;;;;;;;;5026907;28;20235;-73
2022/09/08 13:21:38;;;;;;;13.05;12.05;;;;;;;;;;5036263;28;20239;-73
2022/09/08 13:24:18;;;;;;;12.75;11.82;;;;;;;;;;5024565;28;20228;-74
2022/09/08 13:26:50;;;;;;;13.27;12.18;;;;;;;;;;4998669;28;20310;-73
2022/09/08 13:29:43;;;;;;;12.45;11.45;;;;;;;;;;5018858;28;20231;-73
2022/09/08 13:32:30;;;;;;;12.32;11.30;;;;;;;;;;5020714;28;20701;-72
2022/09/08 13:35:15;;;;;;;12.70;11.75;;;;;;;;;;5008246;28;20234;-71
2022/09/08 13:37:44;;;;;;;11.27;10.48;;;;;;;;;;5012175;28;20254;-71
2022/09/08 13:40:28;;;;;;;11.07;10.32;;;;;;;;;;5039996;28;20668;-72
2022/09/08 13:43:02;;;;;;;10.30;9.50;;;;;;;;;;5011238;28;20247;-72
2022/09/08 13:45:47;;;;;;;11.15;10.25;;;;;;;;;;5038223;28;20235;-72
2022/09/08 13:48:22;;;;;;;9.90;9.13;;;;;;;;;;5027511;28;20227;-72
2022/09/08 13:51:18;;;;;;;10.18;9.43;;;;;;;;;;5035798;28;20219;-71
2022/09/08 13:54:15;;;;;;;10.85;9.90;;;;;;;;;;5012187;28;20724;-72
2022/09/08 13:57:07;;;;;;;10.20;9.40;;;;;;;;;;5004288;28;20220;-72
2022/09/08 13:59:38;;;;;;;10.27;9.55;;;;;;;;;;5020995;28;20311;-72
2022/09/08 14:02:29;;;;;;;9.82;9.13;;;;;;;;;;5033007;28;20224;-72
2022/09/08 14:05:39;;;;;;;9.38;8.77;;;;;;;;;;5025590;28;20269;-72
2022/09/08 14:08:09;;;;;;;9.52;8.82;;;;;;;;;;5002422;28;20238;-72
2022/09/08 14:10:41;;;;;;;10.18;9.38;;;;;;;;;;5038936;28;20215;-72
2022/09/08 14:13:14;;;;;;;10.20;9.43;;;;;;;;;;5034421;28;20694;-72
2022/09/08 14:15:56;;;;;;;12.98;11.98;;;;;;;;;;5022503;28;20277;-72
2022/09/08 14:18:48;;;;;;;9.82;9.05;;;;;;;;;;5021338;28;20219;-72
2022/09/08 14:21:33;;;;;;;10.30;9.48;;;;;;;;;;5003238;28;20273;-71
2022/09/08 14:24:00;;;;;;;11.48;10.57;;;;;;;;;;5010538;28;20224;-73
2022/09/08 14:26:41;;;;;;;10.60;9.80;;;;;;;;;;5017673;28;20237;-73
2022/09/08 14:29:09;;;;;;;11.18;10.38;;;;;;;;;;5026561;28;20739;-72
2022/09/08 14:32:15;;;;;;;10.73;9.90;;;;;;;;;;5019546;28;20228;-73
2022/09/08 14:35:05;;;;;;;11.38;10.57;;;;;;;;;;5038207;28;20224;-72
2022/09/08 14:37:31;;;;;;;12.52;11.60;;;;;;;;;;5020523;28;20235;-72
2022/09/08 14:40:00;;;;;;;12.88;11.90;;;;;;;;;;5015425;28;20254;-74
2022/09/08 14:42:50;;;;;;;12.30;11.30;;;;;;;;;;5003551;28;20241;-72
2022/09/08 14:45:28;;;;;;;12.82;11.73;;;;;;;;;;4980065;28;20220;-72
2022/09/08 14:47:54;;;;;;;12.93;11.93;;;;;;;;;;4995095;28;20258;-73
2022/09/08 14:50:41;;;;;;;13.00;12.10;;;;;;;;;;5006843;28;20722;-73
2022/09/08 14:53:09;;;;;;;13.75;12.75;;;;;;;;;;5000978;28;20228;-72
2022/09/08 14:55:55;;;;;;;15.07;13.98;;;;;;;;;;5000577;28;20753;-72
2022/09/08 14:58:34;;;;;;;14.52;13.43;;;;;;;;;;5018538;28;20231;-73
2022/09/08 15:01:02;;;;;;;14.20;12.77;;;;;;;;;;4995044;28;20285;-73
2022/09/08 15:03:34;;;;;;;14.80;13.65;;;;;;;;;;4973788;28;20762;-73
2022/09/08 15:05:59;;;;;;;15.60;14.43;;;;;;;;;;5000745;28;20355;-73
2022/09/08 15:08:34;;;;;;;14.95;13.80;;;;;;;;;;4990300;28;20239;-74
2022/09/08 15:11:18;;;;;;;15.20;14.00;;;;;;;;;;4982846;28;20227;-74
2022/09/08 15:14:10;;;;;;;15.45;14.23;;;;;;;;;;5006986;28;20226;-73
2022/09/08 15:16:41;;;;;;;15.02;13.80;;;;;;;;;;5012285;28;20297;-74
2022/09/08 15:19:15;;;;;;;13.88;12.88;;;;;;;;;;5018216;28;20227;-73
2022/09/08 15:21:48;;;;;;;12.15;11.23;;;;;;;;;;5024945;28;20245;-72